sensor_id;sensor_type;location;lat;lon;timestamp;temperature;humidity
64705;DHT22;51131;52.298;13.686;2023-08-07T00:00:54;21.00;80.00
64705;DHT22;51131;52.298;13.686;2023-08-07T00:03:21;21.10;80.10
64705;DHT22;51131;52.298;13.686;2023-08-07T00:05:48;20.80;79.80
64705;DHT22;51131;52.298;13.686;2023-08-07T00:08:15;21.30;80.30
64705;DHT22;51131;52.298;13.686;2023-08-07T00:10:41;20.80;79.70
64705;DHT22;51131;52.298;13.686;2023-08-07T00:13:08;20.80;79.80
64705;DHT22;51131;52.298;13.686;2023-08-07T00:15:37;20.80;79.90
64705;DHT22;51131;52.298;13.686;2023-08-07T00:18:04;20.80;79.90
64705;DHT22;51131;52.298;13.686;2023-08-07T00:20:30;20.80;80.00
64705;DHT22;51131;52.298;13.686;2023-08-07T00:22:57;21.00;80.00
64705;DHT22;51131;52.298;13.686;2023-08-07T00:25:24;20.80;79.80
64705;DHT22;51131;52.298;13.686;2023-08-07T00:27:50;20.80;79.80
64705;DHT22;51131;52.298;13.686;2023-08-07T00:30:17;20.80;79.80
64705;DHT22;51131;52.298;13.686;2023-08-07T00:32:44;21.40;80.40
64705;DHT22;51131;52.298;13.686;2023-08-07T00:35:10;20.80;79.90
64705;DHT22;51131;52.298;13.686;2023-08-07T00:37:37;21.00;80.10
64705;DHT22;51131;52.298;13.686;2023-08-07T00:40:04;21.40;80.40
64705;DHT22;51131;52.298;13.686;2023-08-07T00:42:30;20.80;79.90
64705;DHT22;51131;52.298;13.686;2023-08-07T00:44:57;20.80;79.90
64705;DHT22;51131;52.298;13.686;2023-08-07T00:47:24;20.70;79.80
64705;DHT22;51131;52.298;13.686;2023-08-07T00:49:51;20.90;80.00
64705;DHT22;51131;52.298;13.686;2023-08-07T00:52:17;20.80;79.80
64705;DHT22;51131;52.298;13.686;2023-08-07T00:54:46;20.80;79.70
64705;DHT22;51131;52.298;13.686;2023-08-07T00:57:13;21.30;80.20
64705;DHT22;51131;52.298;13.686;2023-08-07T00:59:43;20.90;79.80
64705;DHT22;51131;52.298;13.686;2023-08-07T01:02:10;20.80;79.70
64705;DHT22;51131;52.298;13.686;2023-08-07T01:04:38;20.70;79.60
64705;DHT22;51131;52.298;13.686;2023-08-07T01:07:05;21.10;80.10
64705;DHT22;51131;52.298;13.686;2023-08-07T01:09:32;20.70;79.60
64705;DHT22;51131;52.298;13.686;2023-08-07T01:17:07;20.80;79.70
64705;DHT22;51131;52.298;13.686;2023-08-07T01:19:36;20.70;79.60
64705;DHT22;51131;52.298;13.686;2023-08-07T01:22:06;20.80;79.80
64705;DHT22;51131;52.298;13.686;2023-08-07T01:24:33;20.70;79.60
64705;DHT22;51131;52.298;13.686;2023-08-07T01:27:02;20.70;79.70
64705;DHT22;51131;52.298;13.686;2023-08-07T01:29:35;21.00;79.80
64705;DHT22;51131;52.298;13.686;2023-08-07T01:32:03;20.70;79.70
64705;DHT22;51131;52.298;13.686;2023-08-07T01:34:31;20.70;79.80
64705;DHT22;51131;52.298;13.686;2023-08-07T01:36:58;20.70;79.60
64705;DHT22;51131;52.298;13.686;2023-08-07T01:39:25;20.70;79.80
64705;DHT22;51131;52.298;13.686;2023-08-07T01:41:52;20.70;79.70
64705;DHT22;51131;52.298;13.686;2023-08-07T01:44:18;20.80;79.70
64705;DHT22;51131;52.298;13.686;2023-08-07T01:46:45;20.70;79.50
64705;DHT22;51131;52.298;13.686;2023-08-07T01:49:12;20.70;79.60
64705;DHT22;51131;52.298;13.686;2023-08-07T01:51:38;20.60;80.00
64705;DHT22;51131;52.298;13.686;2023-08-07T01:54:05;21.00;80.10
64705;DHT22;51131;52.298;13.686;2023-08-07T01:56:31;20.70;79.50
64705;DHT22;51131;52.298;13.686;2023-08-07T01:58:58;20.70;79.50
64705;DHT22;51131;52.298;13.686;2023-08-07T02:01:25;20.70;79.60
64705;DHT22;51131;52.298;13.686;2023-08-07T02:03:51;21.00;80.20
64705;DHT22;51131;52.298;13.686;2023-08-07T02:06:18;21.40;80.30
64705;DHT22;51131;52.298;13.686;2023-08-07T02:08:45;21.20;80.30
64705;DHT22;51131;52.298;13.686;2023-08-07T02:11:11;20.80;79.80
64705;DHT22;51131;52.298;13.686;2023-08-07T02:13:38;20.70;79.80
64705;DHT22;51131;52.298;13.686;2023-08-07T02:16:05;20.70;79.60
64705;DHT22;51131;52.298;13.686;2023-08-07T02:18:31;20.70;79.60
64705;DHT22;51131;52.298;13.686;2023-08-07T02:20:58;20.70;79.80
64705;DHT22;51131;52.298;13.686;2023-08-07T02:23:25;20.70;79.80
64705;DHT22;51131;52.298;13.686;2023-08-07T02:25:51;21.50;80.50
64705;DHT22;51131;52.298;13.686;2023-08-07T02:28:18;20.90;79.80
64705;DHT22;51131;52.298;13.686;2023-08-07T02:30:45;21.00;80.00
64705;DHT22;51131;52.298;13.686;2023-08-07T02:33:13;20.60;79.60
64705;DHT22;51131;52.298;13.686;2023-08-07T02:35:40;20.40;79.50
64705;DHT22;51131;52.298;13.686;2023-08-07T02:38:06;20.60;79.60
64705;DHT22;51131;52.298;13.686;2023-08-07T02:40:33;21.00;80.00
64705;DHT22;51131;52.298;13.686;2023-08-07T02:43:00;20.80;80.20
64705;DHT22;51131;52.298;13.686;2023-08-07T02:45:26;20.70;79.80
64705;DHT22;51131;52.298;13.686;2023-08-07T02:47:53;20.60;79.80
64705;DHT22;51131;52.298;13.686;2023-08-07T02:50:20;20.60;79.90
64705;DHT22;51131;52.298;13.686;2023-08-07T02:52:46;20.90;80.20
64705;DHT22;51131;52.298;13.686;2023-08-07T02:55:13;20.70;80.10
64705;DHT22;51131;52.298;13.686;2023-08-07T02:57:39;20.60;79.90
64705;DHT22;51131;52.298;13.686;2023-08-07T03:00:06;20.50;80.40
64705;DHT22;51131;52.298;13.686;2023-08-07T03:02:33;20.70;80.10
64705;DHT22;51131;52.298;13.686;2023-08-07T03:05:00;20.60;79.90
64705;DHT22;51131;52.298;13.686;2023-08-07T03:07:27;20.70;79.90
64705;DHT22;51131;52.298;13.686;2023-08-07T03:09:53;21.20;80.30
64705;DHT22;51131;52.298;13.686;2023-08-07T03:12:20;20.60;79.90
64705;DHT22;51131;52.298;13.686;2023-08-07T03:14:47;20.60;79.90
64705;DHT22;51131;52.298;13.686;2023-08-07T03:17:14;21.40;80.60
64705;DHT22;51131;52.298;13.686;2023-08-07T03:19:42;21.00;80.20
64705;DHT22;51131;52.298;13.686;2023-08-07T03:22:09;20.60;79.80
64705;DHT22;51131;52.298;13.686;2023-08-07T03:24:35;20.70;80.00
64705;DHT22;51131;52.298;13.686;2023-08-07T03:27:02;20.80;80.10
64705;DHT22;51131;52.298;13.686;2023-08-07T03:29:29;20.60;80.20
64705;DHT22;51131;52.298;13.686;2023-08-07T03:31:56;20.60;80.10
64705;DHT22;51131;52.298;13.686;2023-08-07T03:34:22;20.90;80.40
64705;DHT22;51131;52.298;13.686;2023-08-07T03:36:49;20.60;80.20
64705;DHT22;51131;52.298;13.686;2023-08-07T03:39:16;20.60;80.10
64705;DHT22;51131;52.298;13.686;2023-08-07T03:41:42;20.80;80.30
64705;DHT22;51131;52.298;13.686;2023-08-07T03:44:09;20.60;80.10
64705;DHT22;51131;52.298;13.686;2023-08-07T03:46:36;20.60;80.10
64705;DHT22;51131;52.298;13.686;2023-08-07T03:49:03;20.60;80.10
64705;DHT22;51131;52.298;13.686;2023-08-07T03:51:29;20.60;80.10
64705;DHT22;51131;52.298;13.686;2023-08-07T03:53:57;20.60;80.20
64705;DHT22;51131;52.298;13.686;2023-08-07T03:56:23;21.10;80.60
64705;DHT22;51131;52.298;13.686;2023-08-07T03:58:50;20.60;80.10
64705;DHT22;51131;52.298;13.686;2023-08-07T04:01:17;20.60;80.10
64705;DHT22;51131;52.298;13.686;2023-08-07T04:03:46;20.60;80.20
64705;DHT22;51131;52.298;13.686;2023-08-07T04:06:12;20.90;80.60
64705;DHT22;51131;52.298;13.686;2023-08-07T04:08:44;20.60;80.20
64705;DHT22;51131;52.298;13.686;2023-08-07T04:11:11;20.70;80.30
64705;DHT22;51131;52.298;13.686;2023-08-07T04:13:38;20.60;80.20
64705;DHT22;51131;52.298;13.686;2023-08-07T04:16:05;20.50;80.20
64705;DHT22;51131;52.298;13.686;2023-08-07T04:18:32;20.60;80.20
64705;DHT22;51131;52.298;13.686;2023-08-07T04:20:59;20.60;80.90
64705;DHT22;51131;52.298;13.686;2023-08-07T04:23:25;20.60;80.40
64705;DHT22;51131;52.298;13.686;2023-08-07T04:25:52;20.60;80.30
64705;DHT22;51131;52.298;13.686;2023-08-07T04:28:19;20.60;80.30
64705;DHT22;51131;52.298;13.686;2023-08-07T04:30:49;20.60;80.20
64705;DHT22;51131;52.298;13.686;2023-08-07T04:33:16;20.60;80.40
64705;DHT22;51131;52.298;13.686;2023-08-07T04:35:43;20.70;80.40
64705;DHT22;51131;52.298;13.686;2023-08-07T04:38:10;20.50;80.90
64705;DHT22;51131;52.298;13.686;2023-08-07T04:40:36;20.80;80.60
64705;DHT22;51131;52.298;13.686;2023-08-07T04:43:03;20.70;80.30
64705;DHT22;51131;52.298;13.686;2023-08-07T04:45:29;20.60;80.20
64705;DHT22;51131;52.298;13.686;2023-08-07T04:47:56;20.60;80.30
64705;DHT22;51131;52.298;13.686;2023-08-07T04:50:23;21.00;80.70
64705;DHT22;51131;52.298;13.686;2023-08-07T04:52:50;20.50;80.10
64705;DHT22;51131;52.298;13.686;2023-08-07T04:55:16;20.50;80.20
64705;DHT22;51131;52.298;13.686;2023-08-07T04:57:43;20.60;80.40
64705;DHT22;51131;52.298;13.686;2023-08-07T05:00:10;20.60;80.30
64705;DHT22;51131;52.298;13.686;2023-08-07T05:02:37;20.60;80.30
64705;DHT22;51131;52.298;13.686;2023-08-07T05:05:04;20.70;80.40
64705;DHT22;51131;52.298;13.686;2023-08-07T05:07:32;20.60;80.30
64705;DHT22;51131;52.298;13.686;2023-08-07T05:09:59;20.90;80.60
64705;DHT22;51131;52.298;13.686;2023-08-07T05:12:26;21.20;80.90
64705;DHT22;51131;52.298;13.686;2023-08-07T05:14:52;20.70;80.40
64705;DHT22;51131;52.298;13.686;2023-08-07T05:17:19;20.70;80.40
64705;DHT22;51131;52.298;13.686;2023-08-07T05:19:46;20.60;80.40
64705;DHT22;51131;52.298;13.686;2023-08-07T05:22:12;20.70;80.30
64705;DHT22;51131;52.298;13.686;2023-08-07T05:24:39;20.60;80.30
64705;DHT22;51131;52.298;13.686;2023-08-07T05:27:07;20.60;80.40
64705;DHT22;51131;52.298;13.686;2023-08-07T05:29:35;20.60;80.30
64705;DHT22;51131;52.298;13.686;2023-08-07T05:32:13;20.60;80.30
64705;DHT22;51131;52.298;13.686;2023-08-07T05:34:40;20.50;80.10
64705;DHT22;51131;52.298;13.686;2023-08-07T05:37:07;20.60;80.30
64705;DHT22;51131;52.298;13.686;2023-08-07T05:39:34;20.60;80.30
64705;DHT22;51131;52.298;13.686;2023-08-07T05:42:01;20.60;80.30
64705;DHT22;51131;52.298;13.686;2023-08-07T05:44:28;20.60;80.30
64705;DHT22;51131;52.298;13.686;2023-08-07T05:46:55;20.60;80.30
64705;DHT22;51131;52.298;13.686;2023-08-07T05:49:22;20.60;80.30
64705;DHT22;51131;52.298;13.686;2023-08-07T05:51:51;20.60;80.30
64705;DHT22;51131;52.298;13.686;2023-08-07T05:54:18;20.60;80.30
64705;DHT22;51131;52.298;13.686;2023-08-07T05:56:44;20.50;80.30
64705;DHT22;51131;52.298;13.686;2023-08-07T05:59:11;20.60;80.40
64705;DHT22;51131;52.298;13.686;2023-08-07T06:01:38;20.60;80.30
64705;DHT22;51131;52.298;13.686;2023-08-07T06:04:04;20.60;80.30
64705;DHT22;51131;52.298;13.686;2023-08-07T06:06:31;21.20;80.70
64705;DHT22;51131;52.298;13.686;2023-08-07T06:09:01;20.60;80.30
64705;DHT22;51131;52.298;13.686;2023-08-07T06:11:29;20.60;80.30
64705;DHT22;51131;52.298;13.686;2023-08-07T06:13:56;20.50;80.20
64705;DHT22;51131;52.298;13.686;2023-08-07T06:16:22;20.50;80.10
64705;DHT22;51131;52.298;13.686;2023-08-07T06:18:49;20.60;80.20
64705;DHT22;51131;52.298;13.686;2023-08-07T06:21:16;20.80;80.40
64705;DHT22;51131;52.298;13.686;2023-08-07T06:23:42;20.50;80.10
64705;DHT22;51131;52.298;13.686;2023-08-07T06:26:09;20.90;80.40
64705;DHT22;51131;52.298;13.686;2023-08-07T06:28:36;20.50;80.10
64705;DHT22;51131;52.298;13.686;2023-08-07T06:31:06;20.70;80.20
64705;DHT22;51131;52.298;13.686;2023-08-07T06:33:33;21.00;80.60
64705;DHT22;51131;52.298;13.686;2023-08-07T06:36:00;20.50;80.10
64705;DHT22;51131;52.298;13.686;2023-08-07T06:38:27;20.50;80.10
64705;DHT22;51131;52.298;13.686;2023-08-07T06:40:54;20.70;80.30
64705;DHT22;51131;52.298;13.686;2023-08-07T06:43:20;20.60;80.10
64705;DHT22;51131;52.298;13.686;2023-08-07T06:45:51;20.60;80.20
64705;DHT22;51131;52.298;13.686;2023-08-07T06:48:18;20.50;80.00
64705;DHT22;51131;52.298;13.686;2023-08-07T06:50:48;21.00;80.60
64705;DHT22;51131;52.298;13.686;2023-08-07T06:53:15;20.60;80.30
64705;DHT22;51131;52.298;13.686;2023-08-07T06:55:42;20.60;80.40
64705;DHT22;51131;52.298;13.686;2023-08-07T06:58:09;20.60;80.30
64705;DHT22;51131;52.298;13.686;2023-08-07T07:00:36;20.60;80.20
64705;DHT22;51131;52.298;13.686;2023-08-07T07:03:03;20.60;80.20
64705;DHT22;51131;52.298;13.686;2023-08-07T07:05:31;20.60;80.20
64705;DHT22;51131;52.298;13.686;2023-08-07T07:14:56;20.60;80.30
64705;DHT22;51131;52.298;13.686;2023-08-07T07:17:22;20.60;80.30
64705;DHT22;51131;52.298;13.686;2023-08-07T07:19:49;20.50;80.20
64705;DHT22;51131;52.298;13.686;2023-08-07T07:22:16;21.10;80.80
64705;DHT22;51131;52.298;13.686;2023-08-07T07:24:42;20.50;80.20
64705;DHT22;51131;52.298;13.686;2023-08-07T07:27:09;21.30;81.00
64705;DHT22;51131;52.298;13.686;2023-08-07T07:29:36;20.60;80.20
64705;DHT22;51131;52.298;13.686;2023-08-07T07:32:02;20.60;80.40
64705;DHT22;51131;52.298;13.686;2023-08-07T07:34:29;20.60;80.30
64705;DHT22;51131;52.298;13.686;2023-08-07T07:36:56;20.50;80.30
64705;DHT22;51131;52.298;13.686;2023-08-07T07:39:23;20.60;80.40
64705;DHT22;51131;52.298;13.686;2023-08-07T07:41:49;20.60;80.20
64705;DHT22;51131;52.298;13.686;2023-08-07T07:44:16;20.60;80.50
64705;DHT22;51131;52.298;13.686;2023-08-07T07:46:43;20.80;80.60
64705;DHT22;51131;52.298;13.686;2023-08-07T07:49:09;21.10;80.90
64705;DHT22;51131;52.298;13.686;2023-08-07T07:51:36;20.80;80.70
64705;DHT22;51131;52.298;13.686;2023-08-07T07:54:04;20.50;80.90
64705;DHT22;51131;52.298;13.686;2023-08-07T07:56:33;21.10;80.90
64705;DHT22;51131;52.298;13.686;2023-08-07T07:59:00;20.90;80.80
64705;DHT22;51131;52.298;13.686;2023-08-07T08:01:27;20.60;80.60
64705;DHT22;51131;52.298;13.686;2023-08-07T08:03:54;21.10;81.00
64705;DHT22;51131;52.298;13.686;2023-08-07T08:06:21;20.60;80.60
64705;DHT22;51131;52.298;13.686;2023-08-07T08:11:28;20.60;80.50
64705;DHT22;51131;52.298;13.686;2023-08-07T08:13:55;20.70;80.70
64705;DHT22;51131;52.298;13.686;2023-08-07T08:16:22;20.70;80.80
64705;DHT22;51131;52.298;13.686;2023-08-07T08:18:48;20.70;80.70
64705;DHT22;51131;52.298;13.686;2023-08-07T08:21:15;20.70;80.70
64705;DHT22;51131;52.298;13.686;2023-08-07T08:23:42;20.60;80.50
64705;DHT22;51131;52.298;13.686;2023-08-07T08:26:08;20.60;80.50
64705;DHT22;51131;52.298;13.686;2023-08-07T08:28:35;20.70;80.50
64705;DHT22;51131;52.298;13.686;2023-08-07T08:31:01;20.80;80.80
64705;DHT22;51131;52.298;13.686;2023-08-07T08:33:28;20.60;80.60
64705;DHT22;51131;52.298;13.686;2023-08-07T08:35:55;20.60;80.60
64705;DHT22;51131;52.298;13.686;2023-08-07T08:38:21;21.20;81.30
64705;DHT22;51131;52.298;13.686;2023-08-07T08:40:48;20.60;80.60
64705;DHT22;51131;52.298;13.686;2023-08-07T08:43:17;20.50;80.50
64705;DHT22;51131;52.298;13.686;2023-08-07T08:45:44;20.60;80.30
64705;DHT22;51131;52.298;13.686;2023-08-07T08:48:11;20.60;80.50
64705;DHT22;51131;52.298;13.686;2023-08-07T08:50:43;20.60;80.70
64705;DHT22;51131;52.298;13.686;2023-08-07T08:53:10;20.60;80.70
64705;DHT22;51131;52.298;13.686;2023-08-07T08:55:37;20.60;80.80
64705;DHT22;51131;52.298;13.686;2023-08-07T08:58:04;20.60;80.70
64705;DHT22;51131;52.298;13.686;2023-08-07T09:00:31;20.50;80.60
64705;DHT22;51131;52.298;13.686;2023-08-07T09:02:58;20.50;80.60
64705;DHT22;51131;52.298;13.686;2023-08-07T09:05:25;20.50;80.50
64705;DHT22;51131;52.298;13.686;2023-08-07T09:07:53;20.80;81.00
64705;DHT22;51131;52.298;13.686;2023-08-07T09:10:20;20.60;80.30
64705;DHT22;51131;52.298;13.686;2023-08-07T09:12:54;20.90;80.40
64705;DHT22;51131;52.298;13.686;2023-08-07T09:15:23;20.70;80.10
64705;DHT22;51131;52.298;13.686;2023-08-07T09:17:51;21.00;80.10
64705;DHT22;51131;52.298;13.686;2023-08-07T09:20:19;20.90;79.90
64705;DHT22;51131;52.298;13.686;2023-08-07T09:22:46;20.90;79.60
64705;DHT22;51131;52.298;13.686;2023-08-07T09:25:13;20.90;79.60
64705;DHT22;51131;52.298;13.686;2023-08-07T09:27:40;21.00;79.50
64705;DHT22;51131;52.298;13.686;2023-08-07T09:30:07;21.00;79.20
64705;DHT22;51131;52.298;13.686;2023-08-07T09:32:36;21.00;79.20
64705;DHT22;51131;52.298;13.686;2023-08-07T09:35:03;21.20;79.30
64705;DHT22;51131;52.298;13.686;2023-08-07T09:37:33;21.20;79.10
64705;DHT22;51131;52.298;13.686;2023-08-07T09:40:02;21.20;78.90
64705;DHT22;51131;52.298;13.686;2023-08-07T09:42:32;21.20;79.10
64705;DHT22;51131;52.298;13.686;2023-08-07T09:45:00;21.20;78.80
64705;DHT22;51131;52.298;13.686;2023-08-07T09:47:27;21.20;78.70
64705;DHT22;51131;52.298;13.686;2023-08-07T09:49:54;21.20;78.70
64705;DHT22;51131;52.298;13.686;2023-08-07T09:52:21;21.60;79.00
64705;DHT22;51131;52.298;13.686;2023-08-07T09:54:48;21.30;78.50
64705;DHT22;51131;52.298;13.686;2023-08-07T09:57:15;21.30;78.30
64705;DHT22;51131;52.298;13.686;2023-08-07T09:59:43;21.60;78.50
64705;DHT22;51131;52.298;13.686;2023-08-07T10:02:15;21.40;78.30
64705;DHT22;51131;52.298;13.686;2023-08-07T10:04:42;21.30;78.30
64705;DHT22;51131;52.298;13.686;2023-08-07T10:07:09;21.30;78.30
64705;DHT22;51131;52.298;13.686;2023-08-07T10:09:38;21.40;78.60
64705;DHT22;51131;52.298;13.686;2023-08-07T10:12:05;21.40;78.70
64705;DHT22;51131;52.298;13.686;2023-08-07T10:14:33;21.30;78.50
64705;DHT22;51131;52.298;13.686;2023-08-07T10:16:59;21.40;78.50
64705;DHT22;51131;52.298;13.686;2023-08-07T10:19:27;21.20;78.30
64705;DHT22;51131;52.298;13.686;2023-08-07T10:21:54;21.30;78.40
64705;DHT22;51131;52.298;13.686;2023-08-07T10:24:21;21.30;78.40
64705;DHT22;51131;52.298;13.686;2023-08-07T10:26:49;21.40;78.90
64705;DHT22;51131;52.298;13.686;2023-08-07T10:29:16;21.30;78.90
64705;DHT22;51131;52.298;13.686;2023-08-07T10:31:44;21.60;79.20
64705;DHT22;51131;52.298;13.686;2023-08-07T10:34:11;21.20;78.70
64705;DHT22;51131;52.298;13.686;2023-08-07T10:36:38;21.30;78.80
64705;DHT22;51131;52.298;13.686;2023-08-07T10:39:10;21.30;78.80
64705;DHT22;51131;52.298;13.686;2023-08-07T10:41:47;21.20;78.70
64705;DHT22;51131;52.298;13.686;2023-08-07T10:44:21;21.20;78.60
64705;DHT22;51131;52.298;13.686;2023-08-07T10:46:49;21.20;78.90
64705;DHT22;51131;52.298;13.686;2023-08-07T10:54:30;21.20;78.90
64705;DHT22;51131;52.298;13.686;2023-08-07T10:56:57;21.10;78.80
64705;DHT22;51131;52.298;13.686;2023-08-07T10:59:26;21.20;78.90
64705;DHT22;51131;52.298;13.686;2023-08-07T11:01:55;21.20;78.80
64705;DHT22;51131;52.298;13.686;2023-08-07T11:04:22;21.20;78.80
64705;DHT22;51131;52.298;13.686;2023-08-07T11:06:51;21.20;78.80
64705;DHT22;51131;52.298;13.686;2023-08-07T11:09:18;21.10;78.30
64705;DHT22;51131;52.298;13.686;2023-08-07T11:11:45;21.10;77.90
64705;DHT22;51131;52.298;13.686;2023-08-07T11:16:39;21.10;78.70
64705;DHT22;51131;52.298;13.686;2023-08-07T11:19:06;21.10;78.50
64705;DHT22;51131;52.298;13.686;2023-08-07T11:21:34;21.10;78.20
64705;DHT22;51131;52.298;13.686;2023-08-07T11:24:01;21.10;78.60
64705;DHT22;51131;52.298;13.686;2023-08-07T11:26:28;21.10;78.50
64705;DHT22;51131;52.298;13.686;2023-08-07T11:28:55;21.10;78.70
64705;DHT22;51131;52.298;13.686;2023-08-07T11:31:22;21.20;78.60
64705;DHT22;51131;52.298;13.686;2023-08-07T11:33:51;21.10;78.50
64705;DHT22;51131;52.298;13.686;2023-08-07T11:36:18;21.00;78.50
64705;DHT22;51131;52.298;13.686;2023-08-07T11:38:45;21.10;78.80
64705;DHT22;51131;52.298;13.686;2023-08-07T11:41:12;20.80;78.30
64705;DHT22;51131;52.298;13.686;2023-08-07T11:43:40;21.10;78.80
64705;DHT22;51131;52.298;13.686;2023-08-07T11:46:07;21.10;78.60
64705;DHT22;51131;52.298;13.686;2023-08-07T11:48:35;21.10;78.80
64705;DHT22;51131;52.298;13.686;2023-08-07T11:51:02;21.10;78.80
64705;DHT22;51131;52.298;13.686;2023-08-07T11:53:33;21.10;78.80
64705;DHT22;51131;52.298;13.686;2023-08-07T11:58:27;21.10;78.30
64705;DHT22;51131;52.298;13.686;2023-08-07T12:00:54;21.10;78.80
64705;DHT22;51131;52.298;13.686;2023-08-07T12:03:25;21.10;78.80
64705;DHT22;51131;52.298;13.686;2023-08-07T12:05:54;21.10;78.90
64705;DHT22;51131;52.298;13.686;2023-08-07T12:08:21;21.20;78.90
64705;DHT22;51131;52.298;13.686;2023-08-07T12:10:49;21.10;78.70
64705;DHT22;51131;52.298;13.686;2023-08-07T12:13:15;21.20;79.10
64705;DHT22;51131;52.298;13.686;2023-08-07T12:15:42;21.10;78.90
64705;DHT22;51131;52.298;13.686;2023-08-07T12:18:09;21.10;79.00
64705;DHT22;51131;52.298;13.686;2023-08-07T12:20:35;21.00;78.90
64705;DHT22;51131;52.298;13.686;2023-08-07T12:23:02;21.10;79.00
64705;DHT22;51131;52.298;13.686;2023-08-07T12:25:29;21.10;79.30
64705;DHT22;51131;52.298;13.686;2023-08-07T12:27:55;21.00;79.20
64705;DHT22;51131;52.298;13.686;2023-08-07T12:30:22;21.10;79.00
64705;DHT22;51131;52.298;13.686;2023-08-07T12:32:48;21.00;79.20
64705;DHT22;51131;52.298;13.686;2023-08-07T12:35:15;21.70;79.60
64705;DHT22;51131;52.298;13.686;2023-08-07T12:37:42;21.10;79.00
64705;DHT22;51131;52.298;13.686;2023-08-07T12:40:09;21.10;79.40
64705;DHT22;51131;52.298;13.686;2023-08-07T12:42:39;21.00;79.00
64705;DHT22;51131;52.298;13.686;2023-08-07T12:45:06;21.10;79.10
64705;DHT22;51131;52.298;13.686;2023-08-07T12:47:33;21.00;79.20
64705;DHT22;51131;52.298;13.686;2023-08-07T12:50:00;21.10;79.00
64705;DHT22;51131;52.298;13.686;2023-08-07T12:52:27;21.00;79.00
64705;DHT22;51131;52.298;13.686;2023-08-07T12:54:53;21.00;79.00
64705;DHT22;51131;52.298;13.686;2023-08-07T12:57:20;21.00;79.00
64705;DHT22;51131;52.298;13.686;2023-08-07T12:59:47;21.00;79.20
64705;DHT22;51131;52.298;13.686;2023-08-07T13:02:13;21.10;79.30
64705;DHT22;51131;52.298;13.686;2023-08-07T13:04:40;21.10;79.00
64705;DHT22;51131;52.298;13.686;2023-08-07T13:07:06;21.00;78.80
64705;DHT22;51131;52.298;13.686;2023-08-07T13:09:33;21.00;79.00
64705;DHT22;51131;52.298;13.686;2023-08-07T13:12:00;21.00;78.90
64705;DHT22;51131;52.298;13.686;2023-08-07T13:14:27;21.00;78.90
64705;DHT22;51131;52.298;13.686;2023-08-07T13:16:53;21.20;79.20
64705;DHT22;51131;52.298;13.686;2023-08-07T13:19:21;21.00;79.00
64705;DHT22;51131;52.298;13.686;2023-08-07T13:21:48;21.00;79.40
64705;DHT22;51131;52.298;13.686;2023-08-07T13:24:15;20.90;79.30
64705;DHT22;51131;52.298;13.686;2023-08-07T13:26:44;20.90;79.50
64705;DHT22;51131;52.298;13.686;2023-08-07T13:29:14;21.00;79.60
64705;DHT22;51131;52.298;13.686;2023-08-07T13:31:41;21.00;79.70
64705;DHT22;51131;52.298;13.686;2023-08-07T13:34:08;21.00;79.60
64705;DHT22;51131;52.298;13.686;2023-08-07T13:36:37;21.00;79.60
64705;DHT22;51131;52.298;13.686;2023-08-07T13:39:07;21.00;79.70
64705;DHT22;51131;52.298;13.686;2023-08-07T13:41:33;21.00;79.60
64705;DHT22;51131;52.298;13.686;2023-08-07T13:44:00;20.90;79.70
64705;DHT22;51131;52.298;13.686;2023-08-07T13:46:27;20.90;79.60
64705;DHT22;51131;52.298;13.686;2023-08-07T13:48:53;21.40;80.30
64705;DHT22;51131;52.298;13.686;2023-08-07T13:51:20;21.40;80.00
64705;DHT22;51131;52.298;13.686;2023-08-07T13:53:47;20.90;79.80
64705;DHT22;51131;52.298;13.686;2023-08-07T13:56:13;21.00;79.90
64705;DHT22;51131;52.298;13.686;2023-08-07T13:58:41;20.90;79.50
64705;DHT22;51131;52.298;13.686;2023-08-07T14:01:09;21.10;79.80
64705;DHT22;51131;52.298;13.686;2023-08-07T14:03:35;21.60;80.20
64705;DHT22;51131;52.298;13.686;2023-08-07T14:06:02;20.90;79.60
64705;DHT22;51131;52.298;13.686;2023-08-07T14:08:29;20.90;79.90
64705;DHT22;51131;52.298;13.686;2023-08-07T14:10:56;20.90;80.50
64705;DHT22;51131;52.298;13.686;2023-08-07T14:13:22;20.90;79.60
64705;DHT22;51131;52.298;13.686;2023-08-07T14:15:49;20.90;79.90
64705;DHT22;51131;52.298;13.686;2023-08-07T14:18:16;21.30;80.30
64705;DHT22;51131;52.298;13.686;2023-08-07T14:20:43;21.00;79.90
64705;DHT22;51131;52.298;13.686;2023-08-07T14:23:27;21.50;80.20
64705;DHT22;51131;52.298;13.686;2023-08-07T14:25:56;20.90;79.50
64705;DHT22;51131;52.298;13.686;2023-08-07T14:28:23;21.00;79.70
64705;DHT22;51131;52.298;13.686;2023-08-07T14:30:50;21.10;80.20
64705;DHT22;51131;52.298;13.686;2023-08-07T14:33:17;21.50;80.30
64705;DHT22;51131;52.298;13.686;2023-08-07T14:35:43;20.90;79.60
64705;DHT22;51131;52.298;13.686;2023-08-07T14:38:10;21.00;80.00
64705;DHT22;51131;52.298;13.686;2023-08-07T14:40:37;21.60;80.30
64705;DHT22;51131;52.298;13.686;2023-08-07T14:43:07;20.90;79.80
64705;DHT22;51131;52.298;13.686;2023-08-07T14:45:34;20.90;80.00
64705;DHT22;51131;52.298;13.686;2023-08-07T14:48:00;20.90;79.80
64705;DHT22;51131;52.298;13.686;2023-08-07T14:50:27;21.50;80.30
64705;DHT22;51131;52.298;13.686;2023-08-07T14:52:54;20.90;80.00
64705;DHT22;51131;52.298;13.686;2023-08-07T14:55:20;20.90;79.70
64705;DHT22;51131;52.298;13.686;2023-08-07T14:57:47;20.60;79.70
64705;DHT22;51131;52.298;13.686;2023-08-07T15:00:14;21.00;80.10
64705;DHT22;51131;52.298;13.686;2023-08-07T15:02:41;20.90;79.70
64705;DHT22;51131;52.298;13.686;2023-08-07T15:05:07;20.90;79.80
64705;DHT22;51131;52.298;13.686;2023-08-07T15:07:34;21.00;79.90
64705;DHT22;51131;52.298;13.686;2023-08-07T15:10:01;21.00;79.80
64705;DHT22;51131;52.298;13.686;2023-08-07T15:12:27;20.90;79.70
64705;DHT22;51131;52.298;13.686;2023-08-07T15:14:54;20.90;79.60
64705;DHT22;51131;52.298;13.686;2023-08-07T15:17:21;20.90;79.70
64705;DHT22;51131;52.298;13.686;2023-08-07T15:19:48;20.90;79.70
64705;DHT22;51131;52.298;13.686;2023-08-07T15:22:14;21.20;79.90
64705;DHT22;51131;52.298;13.686;2023-08-07T15:24:41;20.90;79.60
64705;DHT22;51131;52.298;13.686;2023-08-07T15:27:08;21.10;80.00
64705;DHT22;51131;52.298;13.686;2023-08-07T15:29:34;21.00;79.70
64705;DHT22;51131;52.298;13.686;2023-08-07T15:32:01;20.90;79.50
64705;DHT22;51131;52.298;13.686;2023-08-07T15:34:28;20.90;79.60
64705;DHT22;51131;52.298;13.686;2023-08-07T15:36:54;20.90;79.30
64705;DHT22;51131;52.298;13.686;2023-08-07T15:39:22;20.90;78.90